createdAt,value
2019-01-08T00:00:34.462Z,57.30
2019-01-08T00:03:08.092Z,50.67
2019-01-08T00:05:41.691Z,54.03
2019-01-08T00:08:15.304Z,51.73
2019-01-08T00:10:48.894Z,52.43
2019-01-08T00:13:22.528Z,51.20
2019-01-08T00:15:56.127Z,56.53
2019-01-08T00:18:29.830Z,55.30
2019-01-08T00:21:03.406Z,55.07
2019-01-08T00:23:37.030Z,54.33
2019-01-08T00:26:10.638Z,54.33
2019-01-08T00:28:44.235Z,53.67
2019-01-08T00:31:17.850Z,56.27
2019-01-08T00:33:51.447Z,57.63
2019-01-08T00:36:25.086Z,58.77
2019-01-08T00:38:58.658Z,51.47
2019-01-08T00:41:32.362Z,55.27
2019-01-08T00:44:05.970Z,53.70
2019-01-08T00:46:39.608Z,51.90
2019-01-08T00:49:13.182Z,53.67
2019-01-08T00:51:46.828Z,52.47
2019-01-08T00:54:20.414Z,52.67
2019-01-08T00:56:54.072Z,53.63
2019-01-08T00:59:27.658Z,50.47
2019-01-08T01:02:01.276Z,56.43
2019-01-08T01:04:34.890Z,50.37
2019-01-08T01:07:08.472Z,52.77
2019-01-08T01:09:42.164Z,51.77
2019-01-08T01:12:15.738Z,58.50
2019-01-08T01:14:49.369Z,56.23
2019-01-08T01:17:22.954Z,59.40
2019-01-08T01:19:56.572Z,54.40
2019-01-08T01:22:30.142Z,53.50
2019-01-08T01:25:03.844Z,52.27
2019-01-08T01:27:37.433Z,54.90
2019-01-08T01:30:11.132Z,49.23
2019-01-08T01:32:44.718Z,49.83
2019-01-08T01:35:18.330Z,56.20
2019-01-08T01:37:51.961Z,52.20
2019-01-08T01:40:25.562Z,48.83
2019-01-08T01:42:59.186Z,53.33
2019-01-08T01:45:32.774Z,52.07
2019-01-08T01:48:06.394Z,50.67
2019-01-08T01:50:40.052Z,49.87
2019-01-08T01:53:13.689Z,51.90
2019-01-08T01:55:47.288Z,47.83
2019-01-08T01:58:21.042Z,49.60
2019-01-08T02:00:54.628Z,47.83
2019-01-08T02:03:28.318Z,52.93
2019-01-08T02:06:01.912Z,47.50
2019-01-08T02:08:35.547Z,48.33
2019-01-08T02:11:09.145Z,42.93
2019-01-08T02:13:42.779Z,38.27
2019-01-08T02:16:16.364Z,42.60
2019-01-08T02:18:49.972Z,38.63
2019-01-08T02:21:23.556Z,42.27
2019-01-08T02:23:57.195Z,35.63
2019-01-08T02:26:30.773Z,36.97
2019-01-08T02:29:04.400Z,34.97
2019-01-08T02:31:37.985Z,40.43
2019-01-08T02:34:11.704Z,36.63
2019-01-08T02:36:45.299Z,33.97
2019-01-08T02:39:18.932Z,34.87
2019-01-08T02:41:52.539Z,32.80
2019-01-08T02:44:26.357Z,34.17
2019-01-08T02:46:59.916Z,32.87
2019-01-08T02:49:33.602Z,32.60
2019-01-08T02:52:07.186Z,31.17
2019-01-08T02:54:40.907Z,25.23
2019-01-08T02:57:14.936Z,30.47
2019-01-08T02:59:48.872Z,27.37
2019-01-08T03:02:22.567Z,29.73
2019-01-08T03:04:56.230Z,28.63
2019-01-08T03:07:29.815Z,27.23
2019-01-08T03:10:03.757Z,24.03
2019-01-08T03:12:37.390Z,26.63
2019-01-08T03:15:11.055Z,24.87
2019-01-08T03:17:44.655Z,24.40
2019-01-08T03:20:18.239Z,22.83
2019-01-08T03:22:51.843Z,22.03
2019-01-08T03:25:25.456Z,25.60
2019-01-08T03:27:59.046Z,23.47
2019-01-08T03:30:32.689Z,22.37
2019-01-08T03:33:06.274Z,21.20
2019-01-08T03:35:39.894Z,23.07
2019-01-08T03:38:13.479Z,21.57
2019-01-08T03:40:47.094Z,19.87
2019-01-08T03:43:20.735Z,21.63
2019-01-08T03:45:54.340Z,20.13
2019-01-08T03:48:27.932Z,19.00
2019-01-08T03:51:01.549Z,22.77
2019-01-08T03:53:35.138Z,23.73
2019-01-08T03:56:08.741Z,19.93
2019-01-08T03:58:42.388Z,20.80
2019-01-08T04:01:16.046Z,18.67
2019-01-08T04:03:49.686Z,19.97
2019-01-08T04:06:23.269Z,20.13
2019-01-08T04:08:56.974Z,18.23
2019-01-08T04:11:30.573Z,15.73
2019-01-08T04:14:04.262Z,19.13
2019-01-08T04:16:37.894Z,18.73
2019-01-08T04:19:11.524Z,20.97
2019-01-08T04:21:45.170Z,17.90
2019-01-08T04:24:18.796Z,16.07
2019-01-08T04:26:52.389Z,15.60
2019-01-08T04:29:26.012Z,15.83
2019-01-08T04:31:59.580Z,14.90
2019-01-08T04:34:33.198Z,13.93
2019-01-08T04:37:06.782Z,16.30
2019-01-08T04:39:40.651Z,15.80
2019-01-08T04:42:14.226Z,13.63
2019-01-08T04:44:47.848Z,17.03
2019-01-08T04:47:21.432Z,10.83
2019-01-08T04:49:55.100Z,12.60
2019-01-08T04:52:30.526Z,12.67
2019-01-08T04:55:04.239Z,16.80
2019-01-08T04:57:37.844Z,11.17
2019-01-08T05:00:11.665Z,14.60
2019-01-08T05:02:45.383Z,13.53
2019-01-08T05:05:18.966Z,15.10
2019-01-08T05:07:52.586Z,9.37
2019-01-08T05:10:26.172Z,17.10
2019-01-08T05:12:59.805Z,10.40
2019-01-08T05:15:34.907Z,12.27
2019-01-08T05:18:08.545Z,10.30
2019-01-08T05:20:42.139Z,10.47
2019-01-08T05:23:15.764Z,12.37
2019-01-08T05:25:49.339Z,9.17
2019-01-08T05:28:22.972Z,8.73
2019-01-08T05:30:56.575Z,12.03
2019-01-08T05:33:30.198Z,10.43
2019-01-08T05:36:03.793Z,7.43
2019-01-08T05:38:37.419Z,7.80
2019-01-08T05:41:10.992Z,8.00
2019-01-08T05:43:44.612Z,9.40
2019-01-08T05:46:18.329Z,9.17
2019-01-08T05:48:51.969Z,10.00
2019-01-08T05:51:25.626Z,7.07
2019-01-08T05:53:59.406Z,14.30
2019-01-08T05:56:33.019Z,9.60
2019-01-08T05:59:06.603Z,9.67
2019-01-08T06:01:40.212Z,11.70
2019-01-08T06:04:13.785Z,12.23
2019-01-08T06:06:47.407Z,9.50
2019-01-08T06:09:20.992Z,11.60
2019-01-08T06:11:54.618Z,8.93
2019-01-08T06:14:28.194Z,9.17
2019-01-08T06:17:01.899Z,7.97
2019-01-08T06:19:35.475Z,9.83
2019-01-08T06:22:09.099Z,8.53
2019-01-08T06:24:42.697Z,9.47
2019-01-08T06:27:16.314Z,7.67
2019-01-08T06:29:50.015Z,10.20
2019-01-08T06:32:23.601Z,9.20
2019-01-08T06:34:57.209Z,13.40
2019-01-08T06:37:30.841Z,15.77
2019-01-08T06:40:05.855Z,13.37
2019-01-08T06:42:39.573Z,12.03
2019-01-08T06:45:13.149Z,12.03
2019-01-08T06:47:46.911Z,11.93
2019-01-08T06:50:20.504Z,14.00
2019-01-08T06:52:54.162Z,12.63
2019-01-08T06:55:27.735Z,13.70
2019-01-08T06:58:01.341Z,14.13
2019-01-08T07:00:36.559Z,15.10
2019-01-08T07:03:10.203Z,14.60
2019-01-08T07:05:44.097Z,15.73
2019-01-08T07:08:17.733Z,17.33
2019-01-08T07:10:51.382Z,15.53
2019-01-08T07:13:25.020Z,15.80
2019-01-08T07:15:58.599Z,15.00
2019-01-08T07:18:32.239Z,18.23
2019-01-08T07:21:05.823Z,18.80
2019-01-08T07:23:39.511Z,16.23
2019-01-08T07:26:13.103Z,20.00
2019-01-08T07:28:46.731Z,19.07
2019-01-08T07:31:20.385Z,19.97
2019-01-08T07:33:54.019Z,23.33
2019-01-08T07:36:27.601Z,19.50
2019-01-08T07:39:01.251Z,25.20
2019-01-08T07:41:35.103Z,24.57
2019-01-08T07:44:08.744Z,25.87
2019-01-08T07:46:42.327Z,22.27
2019-01-08T07:49:15.966Z,21.63
2019-01-08T07:51:49.534Z,20.23
2019-01-08T07:54:23.161Z,24.10
2019-01-08T07:56:56.756Z,18.27
2019-01-08T07:59:30.402Z,23.73
2019-01-08T08:02:04.043Z,28.37
2019-01-08T08:04:37.692Z,34.30
2019-01-08T08:07:11.345Z,32.60
2019-01-08T08:09:44.985Z,32.77
2019-01-08T08:12:18.566Z,31.87
2019-01-08T08:14:52.379Z,29.90
2019-01-08T08:17:25.976Z,30.60
2019-01-08T08:19:59.611Z,25.53
2019-01-08T08:22:33.280Z,30.37
2019-01-08T08:25:13.331Z,37.33
2019-01-08T08:27:46.931Z,30.33
2019-01-08T08:30:20.623Z,36.47
2019-01-08T08:32:54.218Z,33.43
2019-01-08T08:35:28.258Z,31.53
2019-01-08T08:38:02.053Z,28.33
2019-01-08T08:40:35.710Z,26.93
2019-01-08T08:43:09.298Z,27.00
2019-01-08T08:45:42.937Z,27.47
2019-01-08T08:48:16.529Z,34.00
2019-01-08T08:50:50.133Z,28.80
2019-01-08T08:53:23.735Z,29.17
2019-01-08T08:55:57.395Z,27.27
2019-01-08T08:58:30.952Z,31.73
2019-01-08T09:01:07.109Z,27.13
2019-01-08T09:03:39.885Z,26.70
2019-01-08T09:06:13.600Z,22.87
2019-01-08T09:08:47.218Z,25.20
2019-01-08T09:11:20.841Z,31.47
2019-01-08T09:13:54.453Z,24.67
2019-01-08T09:16:28.141Z,31.50
2019-01-08T09:19:01.809Z,25.13
2019-01-08T09:21:35.434Z,24.20
2019-01-08T09:24:09.006Z,29.87
2019-01-08T09:26:42.636Z,23.30
2019-01-08T09:29:16.330Z,25.63
2019-01-08T09:31:49.972Z,31.70
2019-01-08T09:34:23.654Z,24.40
2019-01-08T09:36:57.266Z,29.97
2019-01-08T09:39:30.852Z,33.10
2019-01-08T09:42:04.482Z,28.73
2019-01-08T09:44:38.068Z,28.03
2019-01-08T09:47:11.708Z,25.77
2019-01-08T09:49:45.292Z,25.40
2019-01-08T09:52:18.946Z,30.23
2019-01-08T09:54:52.887Z,28.13
2019-01-08T09:57:26.532Z,23.53
2019-01-08T10:00:00.140Z,25.03
2019-01-08T10:02:33.950Z,28.87
2019-01-08T10:05:07.799Z,25.07
2019-01-08T10:07:41.444Z,23.03
2019-01-08T10:10:15.032Z,23.77
2019-01-08T10:12:48.632Z,28.50
2019-01-08T10:15:22.333Z,26.67
2019-01-08T10:17:56.066Z,24.33
2019-01-08T10:20:29.720Z,33.07
2019-01-08T10:23:09.997Z,28.10
2019-01-08T10:25:38.592Z,25.30
2019-01-08T10:28:12.190Z,28.03
2019-01-08T10:30:45.850Z,26.67
2019-01-08T10:33:19.442Z,26.50
2019-01-08T10:35:55.494Z,27.77
2019-01-08T10:38:29.619Z,27.00
2019-01-08T10:41:03.396Z,26.00
2019-01-08T10:43:37.059Z,24.87
2019-01-08T10:46:10.651Z,24.03
2019-01-08T10:48:44.240Z,27.57
2019-01-08T10:51:17.900Z,25.57
2019-01-08T10:53:51.510Z,26.80
2019-01-08T10:56:25.152Z,26.90
2019-01-08T10:58:58.754Z,30.37
2019-01-08T11:01:40.276Z,26.70
2019-01-08T11:04:07.639Z,27.30
2019-01-08T11:06:41.268Z,29.30
2019-01-08T11:09:15.002Z,31.93
2019-01-08T11:11:48.647Z,28.07
2019-01-08T11:14:22.264Z,26.57
2019-01-08T11:16:55.898Z,29.60
2019-01-08T11:19:31.074Z,31.53
2019-01-08T11:22:04.698Z,32.50
2019-01-08T11:24:38.764Z,32.10
2019-01-08T11:27:12.398Z,29.57
2019-01-08T11:29:45.982Z,34.20
2019-01-08T11:32:19.691Z,36.07
2019-01-08T11:34:53.315Z,32.97
2019-01-08T11:37:26.866Z,35.57
2019-01-08T11:40:00.616Z,32.70
2019-01-08T11:42:34.178Z,32.87
2019-01-08T11:45:09.259Z,40.03
2019-01-08T11:47:42.841Z,34.40
2019-01-08T11:50:16.934Z,34.63
2019-01-08T11:52:50.534Z,33.00
2019-01-08T11:55:24.280Z,35.03
2019-01-08T11:57:57.916Z,35.00
2019-01-08T12:00:31.615Z,27.33
2019-01-08T12:03:05.207Z,31.63
2019-01-08T12:05:38.908Z,33.73
2019-01-08T12:08:12.496Z,30.90
2019-01-08T12:10:46.481Z,28.43
2019-01-08T12:13:20.077Z,33.20
2019-01-08T12:15:53.728Z,31.40
2019-01-08T12:18:27.384Z,30.67
2019-01-08T12:21:01.010Z,28.53
2019-01-08T12:23:34.631Z,26.83
2019-01-08T12:26:08.526Z,27.30
2019-01-08T12:28:42.103Z,26.63
2019-01-08T12:31:15.759Z,29.80
2019-01-08T12:33:49.352Z,29.73
2019-01-08T12:36:22.970Z,32.10
2019-01-08T12:38:56.559Z,25.77
2019-01-08T12:41:30.196Z,27.13
2019-01-08T12:44:03.782Z,27.03
2019-01-08T12:46:37.414Z,27.87
2019-01-08T12:49:11.112Z,31.33
2019-01-08T12:51:44.731Z,30.50
2019-01-08T12:54:18.383Z,28.63
2019-01-08T12:56:52.375Z,29.33
2019-01-08T12:59:25.971Z,32.13
2019-01-08T13:02:00.228Z,30.40
2019-01-08T13:04:33.790Z,35.40
2019-01-08T13:07:07.431Z,29.33
2019-01-08T13:09:41.036Z,31.93
2019-01-08T13:12:14.654Z,32.10
2019-01-08T13:14:48.240Z,37.47
2019-01-08T13:17:22.323Z,36.37
2019-01-08T13:19:56.377Z,39.77
2019-01-08T13:22:30.580Z,34.47
2019-01-08T13:25:05.370Z,34.87
2019-01-08T13:27:39.355Z,31.03
2019-01-08T13:30:13.736Z,31.23
2019-01-08T13:32:47.786Z,31.23
2019-01-08T13:35:22.162Z,28.17
2019-01-08T13:37:56.410Z,30.97
2019-01-08T13:40:30.515Z,25.50
2019-01-08T13:43:04.668Z,25.70
2019-01-08T13:45:39.117Z,28.07
2019-01-08T13:48:12.838Z,30.87
2019-01-08T13:50:46.543Z,31.90
2019-01-08T13:53:20.168Z,29.63
2019-01-08T13:55:53.832Z,30.37
2019-01-08T13:58:27.513Z,32.67
2019-01-08T14:01:01.280Z,37.90
2019-01-08T14:03:34.890Z,34.20
2019-01-08T14:06:08.710Z,30.07
2019-01-08T14:08:42.608Z,33.60
2019-01-08T14:11:16.374Z,36.00
2019-01-08T14:13:50.202Z,35.60
2019-01-08T14:16:24.780Z,43.00
2019-01-08T14:18:58.473Z,37.30
2019-01-08T14:21:32.037Z,41.23
2019-01-08T14:24:05.744Z,39.97
2019-01-08T14:26:39.423Z,42.47
2019-01-08T14:29:13.008Z,44.07
2019-01-08T14:31:46.599Z,49.53
2019-01-08T14:34:20.229Z,46.97
2019-01-08T14:36:53.914Z,54.30
2019-01-08T14:39:27.924Z,46.73
2019-01-08T14:42:01.658Z,44.23
2019-01-08T14:44:35.345Z,50.40
2019-01-08T14:47:09.086Z,52.53
2019-01-08T14:49:42.725Z,57.83
2019-01-08T14:52:16.310Z,58.57
2019-01-08T14:54:50.040Z,54.07
2019-01-08T14:57:23.663Z,56.23
2019-01-08T14:59:57.317Z,56.10
2019-01-08T15:02:31.209Z,52.67
2019-01-08T15:05:05.265Z,55.03
2019-01-08T15:07:39.635Z,49.10
2019-01-08T15:10:16.378Z,57.93
2019-01-08T15:12:50.040Z,53.70
2019-01-08T15:15:23.741Z,63.57
2019-01-08T15:17:57.334Z,55.70
2019-01-08T15:20:30.993Z,56.80
2019-01-08T15:23:04.611Z,56.63
2019-01-08T15:25:38.222Z,70.83
2019-01-08T15:28:11.813Z,60.53
2019-01-08T15:30:45.445Z,68.37
2019-01-08T15:33:20.082Z,67.33
2019-01-08T15:35:53.813Z,66.20
2019-01-08T15:38:27.418Z,67.23
2019-01-08T15:41:01.007Z,60.17
2019-01-08T15:43:34.592Z,77.33
2019-01-08T15:46:08.213Z,68.40
2019-01-08T15:48:41.966Z,63.00
2019-01-08T15:51:15.601Z,67.67
2019-01-08T15:53:49.252Z,84.67
2019-01-08T15:56:22.844Z,88.40
2019-01-08T15:58:56.611Z,82.57
2019-01-08T16:01:30.500Z,84.30
2019-01-08T16:04:04.413Z,86.73
2019-01-08T16:06:38.288Z,77.03
2019-01-08T16:09:12.525Z,92.57
2019-01-08T16:11:46.546Z,87.90
2019-01-08T16:14:20.479Z,93.67
2019-01-08T16:16:54.265Z,89.33
2019-01-08T16:19:29.413Z,82.93
2019-01-08T16:22:06.372Z,86.53
2019-01-08T16:24:40.021Z,96.17
2019-01-08T16:27:13.910Z,95.90
2019-01-08T16:29:47.747Z,88.33
2019-01-08T16:32:21.531Z,93.07
2019-01-08T16:34:55.195Z,95.33
2019-01-08T16:37:29.011Z,106.13
2019-01-08T16:40:02.657Z,101.17
2019-01-08T16:42:36.364Z,105.97
2019-01-08T16:45:10.507Z,108.07
2019-01-08T16:47:44.499Z,103.23
2019-01-08T16:50:18.086Z,99.50
2019-01-08T16:52:51.939Z,128.57
2019-01-08T16:55:25.647Z,120.70
2019-01-08T16:57:59.688Z,128.93
2019-01-08T17:00:33.453Z,118.80
2019-01-08T17:03:07.131Z,128.93
2019-01-08T17:05:40.867Z,101.53
2019-01-08T17:08:14.687Z,114.83
2019-01-08T17:10:48.408Z,107.67
2019-01-08T17:13:22.591Z,118.70
2019-01-08T17:15:56.287Z,99.47
2019-01-08T17:18:30.199Z,117.43
2019-01-08T17:21:04.184Z,132.90
2019-01-08T17:23:38.276Z,118.43
2019-01-08T17:26:12.535Z,111.83
2019-01-08T17:28:46.195Z,121.30
2019-01-08T17:31:19.901Z,113.63
2019-01-08T17:33:53.607Z,139.53
2019-01-08T17:36:27.239Z,141.20
2019-01-08T17:39:00.840Z,174.40
2019-01-08T17:41:34.541Z,151.13
2019-01-08T17:44:08.358Z,137.83
2019-01-08T17:46:42.079Z,142.13
2019-01-08T17:49:15.726Z,162.30
2019-01-08T17:51:49.385Z,152.70
2019-01-08T17:54:23.048Z,144.90
2019-01-08T17:56:56.832Z,143.27
2019-01-08T17:59:30.545Z,125.50
2019-01-08T18:02:04.454Z,100.30
2019-01-08T18:04:38.117Z,139.10
2019-01-08T18:07:11.759Z,131.77
2019-01-08T18:09:45.411Z,114.97
2019-01-08T18:12:19.119Z,133.00
2019-01-08T18:14:52.776Z,115.67
2019-01-08T18:17:26.433Z,109.27
2019-01-08T18:20:00.021Z,103.37
2019-01-08T18:22:33.631Z,115.60
2019-01-08T18:25:07.313Z,126.50
2019-01-08T18:27:40.929Z,121.87
2019-01-08T18:30:14.589Z,119.50
2019-01-08T18:32:48.365Z,107.73
2019-01-08T18:35:21.967Z,134.67
2019-01-08T18:37:55.765Z,117.53
2019-01-08T18:40:30.869Z,142.13
2019-01-08T18:43:04.492Z,153.17
2019-01-08T18:45:38.148Z,123.27
2019-01-08T18:48:11.790Z,121.93
2019-01-08T18:50:45.393Z,133.97
2019-01-08T18:53:19.024Z,139.93
2019-01-08T18:55:52.606Z,119.40
2019-01-08T18:58:26.225Z,120.20
2019-01-08T19:00:59.819Z,125.00
2019-01-08T19:03:33.451Z,145.90
2019-01-08T19:06:07.041Z,118.73
2019-01-08T19:09:18.677Z,123.23
2019-01-08T19:11:52.569Z,122.73
2019-01-08T19:14:29.396Z,131.33
2019-01-08T19:17:03.013Z,101.63
2019-01-08T19:19:36.767Z,128.30
2019-01-08T19:22:10.351Z,116.73
2019-01-08T19:24:44.001Z,120.27
2019-01-08T19:27:17.733Z,103.07
2019-01-08T19:29:51.363Z,112.50
2019-01-08T19:32:25.291Z,121.67
2019-01-08T19:34:59.001Z,119.97
2019-01-08T19:37:32.594Z,106.73
2019-01-08T19:40:08.078Z,104.37
2019-01-08T19:42:41.745Z,121.33
2019-01-08T19:45:15.447Z,110.20
2019-01-08T19:47:49.040Z,102.33
2019-01-08T19:50:22.686Z,113.27
2019-01-08T19:52:56.318Z,106.00
2019-01-08T19:55:29.981Z,101.17
2019-01-08T19:58:03.640Z,123.47
2019-01-08T20:00:37.321Z,93.97
2019-01-08T20:03:10.939Z,121.70
2019-01-08T20:05:44.534Z,113.77
2019-01-08T20:08:18.165Z,95.83
2019-01-08T20:10:51.812Z,114.10
2019-01-08T20:13:25.416Z,129.67
2019-01-08T20:15:59.050Z,91.43
2019-01-08T20:18:32.642Z,124.60
2019-01-08T20:21:06.552Z,104.03
2019-01-08T20:23:40.156Z,98.80
2019-01-08T20:26:14.026Z,120.00
2019-01-08T20:28:47.618Z,107.10
2019-01-08T20:31:21.248Z,149.53
2019-01-08T20:33:54.830Z,122.73
2019-01-08T20:36:28.506Z,120.57
2019-01-08T20:39:02.102Z,139.30
2019-01-08T20:41:35.702Z,123.37
2019-01-08T20:44:09.328Z,115.83
2019-01-08T20:46:42.904Z,111.20
2019-01-08T20:49:16.543Z,114.50
2019-01-08T20:51:50.219Z,124.63
2019-01-08T20:54:23.921Z,131.33
2019-01-08T20:56:57.512Z,118.40
2019-01-08T20:59:31.172Z,123.20
2019-01-08T21:02:04.867Z,123.70
2019-01-08T21:04:38.492Z,122.00
2019-01-08T21:07:12.090Z,120.50
2019-01-08T21:09:45.766Z,105.23
2019-01-08T21:12:19.365Z,121.40
2019-01-08T21:14:53.104Z,114.07
2019-01-08T21:17:26.691Z,127.90
2019-01-08T21:20:00.305Z,121.40
2019-01-08T21:22:33.890Z,122.47
2019-01-08T21:25:08.843Z,114.93
2019-01-08T21:27:42.618Z,121.63
2019-01-08T21:30:16.244Z,111.43
2019-01-08T21:32:49.853Z,148.67
2019-01-08T21:35:23.490Z,101.07
2019-01-08T21:37:58.146Z,140.97
2019-01-08T21:40:31.860Z,139.67
2019-01-08T21:43:05.517Z,153.40
2019-01-08T21:45:39.145Z,139.93
2019-01-08T21:48:12.826Z,110.03
2019-01-08T21:50:46.488Z,187.67
2019-01-08T21:53:20.102Z,117.03
2019-01-08T21:55:53.867Z,232.37
2019-01-08T21:58:28.504Z,152.97
2019-01-08T22:01:02.171Z,183.90
2019-01-08T22:03:35.819Z,182.93
2019-01-08T22:06:09.552Z,168.37
2019-01-08T22:08:43.338Z,186.67
2019-01-08T22:11:16.999Z,177.77
2019-01-08T22:13:50.650Z,162.77
2019-01-08T22:16:24.244Z,180.77
2019-01-08T22:18:57.871Z,302.50
2019-01-08T22:21:31.500Z,105.60
2019-01-08T22:24:05.108Z,213.67
2019-01-08T22:26:38.687Z,154.43
2019-01-08T22:29:13.153Z,203.27
2019-01-08T22:31:46.741Z,245.70
2019-01-08T22:34:20.521Z,195.80
2019-01-08T22:36:54.171Z,132.43
2019-01-08T22:39:27.802Z,160.00
2019-01-08T22:42:01.447Z,123.03
2019-01-08T22:44:35.143Z,175.20
2019-01-08T22:47:09.191Z,181.90
2019-01-08T22:49:43.257Z,155.67
2019-01-08T22:52:16.933Z,159.93
2019-01-08T22:54:50.567Z,157.50
2019-01-08T22:57:24.163Z,166.73
2019-01-08T22:59:57.800Z,155.67
2019-01-08T23:02:31.530Z,161.90
2019-01-08T23:05:10.842Z,326.40
2019-01-08T23:07:41.007Z,125.53
2019-01-08T23:10:14.709Z,253.17
2019-01-08T23:12:48.299Z,230.57
2019-01-08T23:15:22.103Z,244.10
2019-01-08T23:17:55.679Z,171.80
2019-01-08T23:20:29.308Z,288.43
2019-01-08T23:23:03.009Z,280.90
2019-01-08T23:25:36.838Z,320.73
2019-01-08T23:28:10.871Z,164.20
2019-01-08T23:30:44.612Z,281.20
2019-01-08T23:33:18.223Z,170.57
2019-01-08T23:35:52.025Z,277.63
2019-01-08T23:38:25.718Z,308.30
2019-01-08T23:40:59.603Z,151.30
2019-01-08T23:43:33.355Z,300.53
2019-01-08T23:46:07.104Z,223.43
2019-01-08T23:48:40.782Z,269.07
2019-01-08T23:51:14.552Z,155.50
2019-01-08T23:53:48.660Z,200.27
2019-01-08T23:56:22.401Z,223.37
2019-01-08T23:58:56.207Z,199.83
